Time;durP1;ratioP1;P1;durP2;ratioP2;P2;SDS_P1;SDS_P2;PMS_P1;PMS_P2;Temp;Humidity;BMP_temperature;BMP_pressure;BME280_temperature;BME280_humidity;BME280_pressure;Samples;Min_cycle;Max_cycle;Signal;HPM_P1;HPM_P2
2022/12/18 00:01:35;;;;;;;50.85;24.75;;;;;;;-3.42;75.72;102578.28;3606576;39;20199;-64
2022/12/18 00:04:07;;;;;;;49.95;24.52;;;;;;;-3.43;75.68;102592.28;3609221;39;20078;-65
2022/12/18 00:06:36;;;;;;;50.42;25.15;;;;;;;-3.44;76.06;102587.88;3608491;39;20051;-63
2022/12/18 00:09:02;;;;;;;49.08;23.50;;;;;;;-3.52;75.65;102583.34;3608899;39;20094;-63
2022/12/18 00:11:31;;;;;;;43.40;23.00;;;;;;;-3.51;75.52;102592.97;3598969;39;20059;-63
2022/12/18 00:13:59;;;;;;;50.65;24.73;;;;;;;-3.54;75.17;102590.28;3604940;39;20063;-63
2022/12/18 00:16:27;;;;;;;49.00;23.60;;;;;;;-3.56;75.55;102589.34;3606768;39;20058;-63
2022/12/18 00:18:59;;;;;;;49.55;23.58;;;;;;;-3.59;75.64;102591.00;3607487;39;20054;-63
2022/12/18 00:21:27;;;;;;;44.25;23.08;;;;;;;-4.34;75.19;102465.69;3607680;39;20108;-63
2022/12/18 00:23:54;;;;;;;45.28;22.65;;;;;;;-3.84;75.88;102542.22;3607766;39;20058;-63
2022/12/18 00:26:27;;;;;;;44.42;22.17;;;;;;;-3.66;75.57;102574.19;3609362;39;20054;-63
2022/12/18 00:28:53;;;;;;;48.83;22.40;;;;;;;-4.08;75.45;102500.47;3608477;39;20482;-62
2022/12/18 00:31:23;;;;;;;46.92;23.00;;;;;;;-3.77;75.31;102547.66;3610790;39;20123;-63
2022/12/18 00:33:49;;;;;;;44.78;22.08;;;;;;;-3.77;75.34;102544.16;3607547;39;20054;-63
2022/12/18 00:36:21;;;;;;;43.65;22.15;;;;;;;-3.77;75.44;102557.31;3606980;39;20081;-63
2022/12/18 00:38:48;;;;;;;44.70;22.40;;;;;;;-3.77;75.58;102549.41;3608270;39;20062;-63
2022/12/18 00:44:03;;;;;;;43.80;20.65;;;;;;;-3.78;75.36;102547.63;3605884;39;21215;-62
2022/12/18 00:46:29;;;;;;;45.80;22.40;;;;;;;-3.77;75.42;102544.16;3610138;39;20064;-62
2022/12/18 00:48:54;;;;;;;49.85;22.95;;;;;;;-3.76;75.34;102543.31;3607271;39;20113;-63
2022/12/18 00:51:20;;;;;;;43.70;21.05;;;;;;;-3.77;75.67;102542.41;3606691;39;20877;-63
2022/12/18 00:53:45;;;;;;;45.70;22.80;;;;;;;-3.79;75.83;102530.09;3607997;39;20061;-63
2022/12/18 00:56:11;;;;;;;46.22;23.38;;;;;;;-3.75;75.39;102537.19;3606159;39;20066;-63
2022/12/18 00:58:37;;;;;;;44.67;22.80;;;;;;;-3.74;75.51;102544.25;3608082;39;20057;-63
2022/12/18 01:01:06;;;;;;;41.05;21.23;;;;;;;-3.73;74.86;102540.75;3607638;39;20043;-63
2022/12/18 01:03:32;;;;;;;45.80;22.60;;;;;;;-3.71;75.62;102554.81;3610601;39;20053;-63
2022/12/18 01:05:58;;;;;;;43.05;22.90;;;;;;;-3.69;75.40;102549.59;3610712;39;20292;-63
2022/12/18 01:08:24;;;;;;;42.97;20.98;;;;;;;-3.71;75.40;102544.31;3611271;39;20063;-63
2022/12/18 01:10:50;;;;;;;44.63;21.58;;;;;;;-3.69;75.30;102550.47;3609866;39;20047;-63
2022/12/18 01:13:16;;;;;;;44.25;20.90;;;;;;;-3.69;75.31;102555.72;3611139;39;20065;-62
2022/12/18 01:15:50;;;;;;;41.22;20.15;;;;;;;-3.70;75.20;102567.09;3612123;39;20054;-63
2022/12/18 01:18:15;;;;;;;42.13;21.25;;;;;;;-3.71;75.16;102565.34;3613728;39;20050;-63
2022/12/18 01:20:41;;;;;;;40.47;20.73;;;;;;;-3.72;74.91;102567.91;3610568;39;20074;-62
2022/12/18 01:23:06;;;;;;;42.75;20.75;;;;;;;-3.77;74.45;102575.69;3612377;39;20055;-62
2022/12/18 01:25:32;;;;;;;40.50;21.15;;;;;;;-3.80;75.45;102570.34;3610530;39;20127;-62
2022/12/18 01:27:58;;;;;;;38.03;18.85;;;;;;;-3.78;75.23;102568.63;3610839;39;20071;-62
2022/12/18 01:30:23;;;;;;;42.85;21.15;;;;;;;-3.76;75.10;102566.94;3613171;39;20051;-62
2022/12/18 01:32:49;;;;;;;39.00;21.50;;;;;;;-3.75;75.00;102563.47;3610174;39;20058;-62
2022/12/18 01:35:14;;;;;;;39.13;20.05;;;;;;;-3.98;75.26;102520.84;3609656;39;20058;-63
2022/12/18 01:37:40;;;;;;;42.30;20.33;;;;;;;-3.75;75.10;102552.94;3611083;39;20729;-62
2022/12/18 01:40:07;;;;;;;42.70;21.42;;;;;;;-3.78;75.11;102545.88;3612039;39;20055;-62
2022/12/18 01:42:32;;;;;;;39.17;19.10;;;;;;;-3.72;75.01;102558.28;3612091;39;20398;-62
2022/12/18 01:45:12;;;;;;;36.80;19.20;;;;;;;-3.72;75.04;102557.41;3610319;39;21213;-62
2022/12/18 01:47:45;;;;;;;39.25;18.73;;;;;;;-3.72;75.18;102555.66;3609545;39;20059;-63
2022/12/18 01:50:36;;;;;;;38.58;19.30;;;;;;;-3.75;75.02;102550.31;3611837;39;20051;-62
2022/12/18 01:53:12;;;;;;;40.83;19.42;;;;;;;-3.72;75.30;102558.28;3611277;39;20390;-62
2022/12/18 01:55:54;;;;;;;37.00;18.25;;;;;;;-3.70;75.49;102561.84;3609017;39;20343;-62
2022/12/18 01:58:51;;;;;;;34.80;17.92;;;;;;;-3.74;75.26;102549.50;3611110;39;20237;-62
2022/12/18 02:01:19;;;;;;;34.05;18.08;;;;;;;-3.71;75.13;102552.19;3592799;39;20058;-62
2022/12/18 02:03:45;;;;;;;34.58;18.27;;;;;;;-3.69;75.24;102550.47;3611458;39;20054;-62
2022/12/18 02:06:32;;;;;;;35.22;17.92;;;;;;;-3.72;74.52;102542.50;3611300;39;20373;-63
2022/12/18 02:09:20;;;;;;;34.55;18.55;;;;;;;-3.72;74.71;102536.38;3609471;39;20063;-62
2022/12/18 02:12:01;;;;;;;34.80;18.17;;;;;;;-3.71;74.50;102544.31;3613290;39;20307;-62
2022/12/18 02:14:29;;;;;;;34.28;17.80;;;;;;;-3.72;74.27;102542.50;3609927;39;20109;-62
2022/12/18 02:17:13;;;;;;;40.17;18.55;;;;;;;-3.72;74.41;102547.78;3608952;39;20046;-62
2022/12/18 02:19:57;;;;;;;36.58;17.95;;;;;;;-3.72;74.39;102547.78;3608173;39;20074;-63
2022/12/18 02:22:44;;;;;;;31.30;17.08;;;;;;;-3.74;74.48;102539.88;3610817;39;20047;-62
2022/12/18 02:25:21;;;;;;;34.58;17.27;;;;;;;-3.77;74.21;102541.53;3608133;39;20070;-63
2022/12/18 02:27:52;;;;;;;39.50;18.20;;;;;;;-3.76;74.13;102541.56;3608569;39;20067;-62
2022/12/18 02:30:19;;;;;;;33.33;17.23;;;;;;;-3.75;74.16;102547.69;3609609;39;20090;-62
2022/12/18 02:32:53;;;;;;;36.50;17.90;;;;;;;-3.75;74.08;102552.94;3609019;39;20059;-62
2022/12/18 02:35:29;;;;;;;;;;;;;;;-3.77;74.34;102541.53;3612503;39;20054;-63
2022/12/18 02:37:56;;;;;;;31.70;17.25;;;;;;;-3.78;73.86;102542.38;3609506;39;19942;-63
2022/12/18 02:40:27;;;;;;;35.80;17.92;;;;;;;-3.81;73.29;102539.66;3612156;39;20078;-63
2022/12/18 02:42:53;;;;;;;33.05;17.05;;;;;;;-3.82;73.74;102538.78;3609366;39;20098;-63
2022/12/18 02:45:18;;;;;;;32.67;17.27;;;;;;;-3.85;73.58;102536.06;3611338;39;20061;-63
2022/12/18 02:47:49;;;;;;;35.22;17.13;;;;;;;-3.89;73.52;102528.09;3608399;39;20058;-63
2022/12/18 02:50:37;;;;;;;33.30;16.65;;;;;;;-3.93;73.88;102521.88;3609254;39;20066;-63
2022/12/18 02:53:25;;;;;;;30.77;17.42;;;;;;;-3.93;74.08;102510.44;3608375;39;20079;-63
2022/12/18 02:56:18;;;;;;;29.38;17.17;;;;;;;-3.94;73.83;102509.56;3610342;39;20673;-63
2022/12/18 02:59:25;;;;;;;27.73;15.75;;;;;;;-3.92;74.23;102510.50;3601682;39;20126;-64
2022/12/18 03:02:29;;;;;;;30.52;15.43;;;;;;;-4.05;73.71;102492.69;3596606;39;20063;-63
2022/12/18 03:05:06;;;;;;;29.35;15.77;;;;;;;-3.94;73.87;102517.44;3606846;39;20063;-63
2022/12/18 03:07:51;;;;;;;31.33;15.18;;;;;;;-3.94;73.55;102508.69;3608934;39;20061;-63
2022/12/18 03:10:27;;;;;;;27.50;14.38;;;;;;;-3.95;74.11;102507.81;3611180;39;20063;-64
2022/12/18 03:13:11;;;;;;;29.67;15.23;;;;;;;-3.94;73.68;102498.19;3610647;39;20059;-64
2022/12/18 03:15:46;;;;;;;28.98;15.40;;;;;;;-3.96;73.52;102498.16;3610301;39;20159;-64
2022/12/18 03:18:28;;;;;;;27.83;14.57;;;;;;;-3.97;73.66;102493.72;3606404;39;20294;-64
2022/12/18 03:21:01;;;;;;;30.05;15.25;;;;;;;-3.98;73.61;102497.22;3606759;39;20059;-64
2022/12/18 03:23:35;;;;;;;26.05;15.00;;;;;;;-4.01;73.73;102490.16;3604553;39;20200;-64
2022/12/18 03:26:09;;;;;;;27.80;14.65;;;;;;;-4.03;73.48;102494.50;3609062;39;20368;-60
2022/12/18 03:28:48;;;;;;;29.42;14.40;;;;;;;-4.13;73.58;102476.72;3609563;39;20119;-64
2022/12/18 03:31:17;;;;;;;27.40;15.05;;;;;;;-4.04;73.50;102495.31;3609743;39;20124;-64
2022/12/18 03:33:59;;;;;;;26.50;12.98;;;;;;;-4.07;73.55;102511.00;3608049;39;20063;-64
2022/12/18 03:36:25;;;;;;;30.08;15.55;;;;;;;-4.11;73.53;102495.16;3610138;39;20063;-62
2022/12/18 03:38:51;;;;;;;27.30;14.73;;;;;;;-4.23;73.29;102474.72;3607873;39;20054;-62
2022/12/18 03:41:28;;;;;;;27.27;15.25;;;;;;;-4.04;73.39;102505.84;3607492;39;20053;-62
2022/12/18 03:44:28;;;;;;;27.65;14.43;;;;;;;-4.05;73.17;102506.69;3606921;39;20135;-63
2022/12/18 03:47:27;;;;;;;29.02;14.82;;;;;;;-4.08;73.35;102497.84;3606427;39;20047;-62
2022/12/18 03:50:12;;;;;;;27.73;14.48;;;;;;;-4.10;73.27;102484.66;3604918;39;20665;-64
2022/12/18 03:52:56;;;;;;;32.72;14.70;;;;;;;-4.11;72.79;102490.78;3608973;39;20059;-64
2022/12/18 03:55:26;;;;;;;26.88;14.18;;;;;;;-4.27;72.80;102459.75;3608055;39;20136;-61
2022/12/18 03:57:54;;;;;;;27.80;14.05;;;;;;;-4.12;73.38;102480.22;3607329;39;20059;-61
2022/12/18 04:00:20;;;;;;;26.42;13.23;;;;;;;-4.12;72.75;102475.88;3609578;39;20393;-61
2022/12/18 04:02:53;;;;;;;27.10;13.55;;;;;;;-4.18;73.00;102465.22;3606821;39;20063;-61
2022/12/18 04:05:24;;;;;;;27.80;14.60;;;;;;;-4.17;72.90;102464.38;3607482;39;20112;-61
2022/12/18 04:07:53;;;;;;;29.55;14.15;;;;;;;-4.18;73.23;102456.47;3609302;39;20058;-64
2022/12/18 04:10:19;;;;;;;26.50;13.82;;;;;;;-4.28;72.52;102442.19;3609698;39;20728;-64
2022/12/18 04:12:45;;;;;;;25.85;13.93;;;;;;;-4.21;72.61;102452.91;3606518;39;20063;-61
2022/12/18 04:15:13;;;;;;;23.23;13.15;;;;;;;-4.23;73.04;102451.06;3607612;39;20358;-64
2022/12/18 04:17:48;;;;;;;23.83;13.77;;;;;;;-4.21;73.18;102450.28;3607456;39;20051;-61
2022/12/18 04:20:14;;;;;;;28.55;14.50;;;;;;;-4.20;72.61;102438.91;3608294;39;20123;-62
2022/12/18 04:22:39;;;;;;;27.13;13.57;;;;;;;-4.20;72.85;102432.78;3605259;39;20313;-62
2022/12/18 04:25:05;;;;;;;24.73;13.98;;;;;;;-4.26;72.82;102416.88;3607606;39;20393;-62
2022/12/18 04:27:31;;;;;;;27.60;14.30;;;;;;;-4.20;72.77;102438.91;3606981;39;20071;-61
2022/12/18 04:29:56;;;;;;;25.33;13.38;;;;;;;-4.21;72.60;102442.41;3605365;39;20067;-65
2022/12/18 04:32:22;;;;;;;26.08;14.20;;;;;;;-4.24;72.60;102446.69;3608333;39;20085;-62
2022/12/18 04:34:47;;;;;;;26.00;13.68;;;;;;;-4.26;72.80;102444.00;3610089;39;20108;-61
2022/12/18 04:37:13;;;;;;;24.90;14.15;;;;;;;-4.18;73.04;102456.47;3611466;39;20055;-62
2022/12/18 04:39:39;;;;;;;25.23;13.32;;;;;;;-4.17;72.55;102458.22;3607659;39;20043;-62
2022/12/18 04:42:05;;;;;;;24.13;13.63;;;;;;;-4.19;72.21;102455.56;3609533;39;20054;-62
2022/12/18 04:44:30;;;;;;;25.35;14.05;;;;;;;-4.13;72.33;102468.84;3607358;39;20061;-62
2022/12/18 04:46:56;;;;;;;26.38;13.77;;;;;;;-4.27;71.79;102441.38;3607395;39;20066;-64
2022/12/18 04:49:22;;;;;;;23.98;13.82;;;;;;;-4.11;71.97;102479.38;3608136;39;20320;-61
2022/12/18 04:51:47;;;;;;;24.77;14.38;;;;;;;-4.14;71.82;102477.56;3607347;39;20039;-61
2022/12/18 04:54:13;;;;;;;26.35;13.85;;;;;;;-4.12;71.88;102483.75;3609662;39;20053;-61
2022/12/18 04:56:39;;;;;;;22.85;12.68;;;;;;;-4.12;71.63;102481.13;3606598;39;20073;-62
2022/12/18 04:59:05;;;;;;;25.15;13.52;;;;;;;-4.17;71.59;102485.38;3605164;39;20302;-62
2022/12/18 05:01:33;;;;;;;23.90;13.05;;;;;;;-4.17;71.91;102482.75;3607002;39;20410;-63
2022/12/18 05:03:59;;;;;;;23.60;12.32;;;;;;;-4.17;71.76;102481.84;3603636;39;20047;-62
2022/12/18 05:06:25;;;;;;;24.05;13.05;;;;;;;-4.16;71.61;102484.50;3606039;39;20518;-62
2022/12/18 05:08:50;;;;;;;21.52;12.18;;;;;;;-4.16;72.06;102481.88;3607039;39;20054;-62
2022/12/18 05:11:16;;;;;;;24.88;12.75;;;;;;;-4.17;71.77;102480.13;3612145;39;20070;-63
2022/12/18 05:13:44;;;;;;;23.40;12.77;;;;;;;-4.17;71.69;102490.63;3608183;39;20378;-62
2022/12/18 05:16:10;;;;;;;23.83;12.55;;;;;;;-4.25;71.72;102476.41;3604261;39;21631;-61
2022/12/18 05:18:37;;;;;;;22.30;12.00;;;;;;;-4.18;71.85;102491.47;3609535;39;20054;-62
2022/12/18 05:21:03;;;;;;;25.45;12.98;;;;;;;-4.22;71.84;102490.53;3599132;39;20065;-64
2022/12/18 05:23:29;;;;;;;21.98;12.90;;;;;;;-4.22;71.62;102487.88;3604065;39;20058;-61
2022/12/18 05:26:02;;;;;;;24.25;12.57;;;;;;;-4.22;71.81;102481.72;3608542;39;20429;-61
2022/12/18 05:28:31;;;;;;;21.92;12.35;;;;;;;-4.23;71.79;102486.09;3611513;39;20128;-62
2022/12/18 05:31:00;;;;;;;24.70;12.70;;;;;;;-4.22;72.15;102474.75;3607372;39;20690;-62
2022/12/18 05:33:30;;;;;;;22.15;12.27;;;;;;;-4.20;72.21;102482.66;3599962;39;20182;-61
2022/12/18 05:36:05;;;;;;;23.05;12.02;;;;;;;-4.22;71.97;102476.47;3605170;39;20066;-62
2022/12/18 05:38:33;;;;;;;22.42;12.10;;;;;;;-4.18;72.05;102480.97;3608966;39;20116;-62
2022/12/18 05:40:59;;;;;;;22.25;12.40;;;;;;;-4.19;72.09;102471.31;3610948;39;20062;-62
2022/12/18 05:43:26;;;;;;;22.15;12.13;;;;;;;-4.20;71.74;102465.16;3607031;39;20061;-62
2022/12/18 05:45:54;;;;;;;25.38;12.43;;;;;;;-4.22;71.80;102463.34;3608075;39;20311;-62
2022/12/18 05:48:20;;;;;;;23.38;12.48;;;;;;;-4.23;72.03;102465.09;3607601;39;20344;-62
2022/12/18 05:50:49;;;;;;;20.75;12.27;;;;;;;-4.25;71.83;102463.28;3610337;39;20047;-64
2022/12/18 05:53:19;;;;;;;24.33;11.95;;;;;;;-4.64;71.96;102406.28;3614670;39;20047;-62
2022/12/18 05:55:45;;;;;;;22.63;12.07;;;;;;;-4.29;71.93;102464.03;3610590;39;20065;-62
2022/12/18 05:58:13;;;;;;;23.20;11.88;;;;;;;-4.32;72.17;102461.34;3610892;39;20055;-64
2022/12/18 06:00:43;;;;;;;23.20;12.50;;;;;;;-4.34;72.42;102461.31;3608936;39;20062;-61
2022/12/18 06:03:11;;;;;;;22.85;11.85;;;;;;;-4.34;72.63;102465.69;3608608;39;20725;-62
2022/12/18 06:05:41;;;;;;;26.48;12.80;;;;;;;-4.32;72.31;102456.09;3610917;39;20215;-62
2022/12/18 06:08:08;;;;;;;18.73;11.85;;;;;;;-4.33;71.66;102460.47;3614635;39;20046;-62
2022/12/18 06:10:33;;;;;;;23.15;11.88;;;;;;;-4.33;72.49;102451.69;3609813;39;20139;-62
2022/12/18 06:13:00;;;;;;;21.65;12.23;;;;;;;-4.34;72.16;102460.44;3610745;39;20051;-62
2022/12/18 06:15:25;;;;;;;22.83;12.32;;;;;;;-4.36;72.06;102463.00;3603641;39;20083;-62
2022/12/18 06:17:51;;;;;;;21.50;12.10;;;;;;;-4.35;71.71;102461.25;3609808;39;20057;-61
2022/12/18 06:20:17;;;;;;;23.25;12.35;;;;;;;-4.36;72.03;102463.00;3611605;39;20054;-62
2022/12/18 06:22:43;;;;;;;25.00;12.05;;;;;;;-4.37;71.87;102462.97;3607942;39;20051;-61
2022/12/18 06:25:09;;;;;;;23.50;11.98;;;;;;;-4.39;71.72;102459.41;3608701;39;20058;-61
2022/12/18 06:27:34;;;;;;;19.02;11.07;;;;;;;-4.38;71.87;102463.81;3610725;39;20051;-61
2022/12/18 06:30:00;;;;;;;22.42;11.88;;;;;;;-4.40;71.96;102460.28;3610280;39;20058;-61
2022/12/18 06:32:27;;;;;;;23.00;12.15;;;;;;;-4.45;72.09;102453.16;3612013;39;20061;-61
2022/12/18 06:34:53;;;;;;;23.73;12.25;;;;;;;-4.40;71.67;102455.91;3609192;39;20063;-61
2022/12/18 06:37:19;;;;;;;20.73;11.57;;;;;;;-4.41;72.48;102462.00;3613483;39;20051;-61
2022/12/18 06:39:44;;;;;;;22.73;11.93;;;;;;;-4.40;71.93;102460.28;3611271;39;20476;-61
2022/12/18 06:42:10;;;;;;;21.67;12.00;;;;;;;-4.38;71.89;102458.56;3611683;39;20050;-61
2022/12/18 06:44:36;;;;;;;24.73;12.88;;;;;;;-4.43;72.17;102443.59;3610220;39;20065;-61
2022/12/18 06:47:01;;;;;;;23.90;12.43;;;;;;;-4.45;72.30;102436.53;3610254;39;20043;-61
2022/12/18 06:49:27;;;;;;;24.10;12.63;;;;;;;-4.42;71.90;102436.59;3607954;39;20061;-62
2022/12/18 06:51:53;;;;;;;21.27;12.05;;;;;;;-4.42;72.35;102444.47;3601701;39;20119;-61
2022/12/18 06:54:18;;;;;;;20.45;11.43;;;;;;;-4.41;72.49;102432.22;3610055;39;20054;-61
2022/12/18 06:56:46;;;;;;;20.08;11.52;;;;;;;-4.41;72.19;102434.84;3611272;39;20098;-62
2022/12/18 06:59:14;;;;;;;22.83;12.43;;;;;;;-4.47;72.41;102427.75;3608960;39;20119;-62
2022/12/18 07:01:40;;;;;;;22.92;12.38;;;;;;;-4.39;72.11;102447.19;3611140;39;20050;-62
2022/12/18 07:04:05;;;;;;;19.92;11.90;;;;;;;-4.36;72.62;102446.38;3610964;39;20299;-62
2022/12/18 07:06:31;;;;;;;23.60;12.10;;;;;;;-4.50;72.04;102427.66;3611293;39;20047;-62
2022/12/18 07:08:57;;;;;;;22.52;12.05;;;;;;;-4.44;72.30;102428.69;3610809;39;20070;-62
2022/12/18 07:11:23;;;;;;;23.40;12.50;;;;;;;-4.43;71.83;102435.72;3614028;39;20083;-62
2022/12/18 07:13:49;;;;;;;20.42;12.30;;;;;;;-4.61;72.04;102390.63;3611394;39;20082;-63
2022/12/18 07:16:18;;;;;;;23.95;12.52;;;;;;;-4.42;72.32;102418.22;3611389;39;20070;-62
2022/12/18 07:18:45;;;;;;;22.55;12.07;;;;;;;-4.41;72.24;102416.50;3610667;39;20047;-61
2022/12/18 07:21:15;;;;;;;23.38;11.60;;;;;;;-4.43;72.05;102409.47;3609608;39;20061;-62
2022/12/18 07:23:41;;;;;;;23.15;12.77;;;;;;;-4.47;72.26;102404.13;3610248;39;20282;-62
2022/12/18 07:26:11;;;;;;;23.48;12.05;;;;;;;-4.51;72.15;102378.63;3608860;39;20059;-62
2022/12/18 07:28:40;;;;;;;22.38;12.30;;;;;;;-4.46;72.27;102372.66;3610438;39;20057;-62
2022/12/18 07:31:12;;;;;;;21.75;12.60;;;;;;;-4.46;72.51;102377.91;3608839;39;20313;-62
2022/12/18 07:33:38;;;;;;;25.00;12.13;;;;;;;-4.49;72.79;102350.69;3612327;39;20126;-62
2022/12/18 07:36:06;;;;;;;22.40;12.15;;;;;;;-4.39;72.76;102380.69;3609234;39;20071;-62
2022/12/18 07:38:34;;;;;;;21.88;12.45;;;;;;;-4.32;72.77;102385.22;3611571;39;20083;-61
2022/12/18 07:41:07;;;;;;;25.20;12.68;;;;;;;-4.25;72.68;102366.13;3612389;39;20144;-62
2022/12/18 07:43:34;;;;;;;22.05;11.75;;;;;;;-4.21;72.24;102365.38;3611557;39;20047;-62
2022/12/18 07:46:00;;;;;;;21.58;12.32;;;;;;;-4.20;72.17;102356.63;3614215;39;20084;-62
2022/12/18 07:48:26;;;;;;;22.30;12.57;;;;;;;-4.13;72.00;102353.31;3609552;39;20083;-61
2022/12/18 07:50:52;;;;;;;24.10;12.95;;;;;;;-4.35;72.01;102302.03;3608063;39;20087;-62
2022/12/18 07:53:17;;;;;;;21.85;12.63;;;;;;;-4.06;71.92;102344.72;3610696;39;20415;-62
2022/12/18 07:55:43;;;;;;;21.45;11.80;;;;;;;-4.02;71.72;102336.06;3610603;39;20098;-62
2022/12/18 07:58:09;;;;;;;20.67;12.10;;;;;;;-4.00;71.64;102336.97;3611395;39;20160;-62
2022/12/18 08:00:35;;;;;;;21.73;12.00;;;;;;;-3.94;72.00;102330.09;3610728;39;20143;-61
2022/12/18 08:03:01;;;;;;;24.17;12.90;;;;;;;-3.89;71.64;102325.84;3614422;39;20098;-62
2022/12/18 08:05:28;;;;;;;24.75;12.68;;;;;;;-3.86;71.42;102344.28;3612089;39;20101;-63
2022/12/18 08:07:54;;;;;;;25.08;13.27;;;;;;;-3.81;71.67;102350.50;3609178;39;20055;-62
2022/12/18 08:10:20;;;;;;;24.15;13.25;;;;;;;-4.01;71.56;102298.44;3615592;39;20334;-63
2022/12/18 08:12:49;;;;;;;24.10;12.00;;;;;;;-3.95;71.07;102302.06;3609916;39;20294;-62
2022/12/18 08:15:15;;;;;;;24.38;13.43;;;;;;;-3.65;71.46;102343.84;3610461;39;20059;-63
2022/12/18 08:17:40;;;;;;;22.85;11.77;;;;;;;-3.59;71.28;102333.47;3608294;39;20074;-62
2022/12/18 08:20:07;;;;;;;22.42;12.65;;;;;;;-3.56;71.13;102342.28;3610959;39;20051;-63
2022/12/18 08:22:39;;;;;;;21.10;11.52;;;;;;;-3.47;70.98;102348.59;3611576;39;20038;-62
2022/12/18 08:25:06;;;;;;;21.35;12.60;;;;;;;-3.43;70.72;102355.69;3611359;39;20067;-63
2022/12/18 08:27:31;;;;;;;23.05;11.27;;;;;;;-3.36;70.73;102357.56;3611722;39;20077;-62
2022/12/18 08:29:57;;;;;;;22.20;12.73;;;;;;;-3.34;70.67;102347.97;3609917;39;20063;-63
2022/12/18 08:32:25;;;;;;;19.35;11.65;;;;;;;-3.29;70.17;102348.97;3609205;39;20058;-62
2022/12/18 08:34:51;;;;;;;23.02;12.60;;;;;;;-3.23;70.05;102343.84;3612590;39;20486;-61
2022/12/18 08:37:16;;;;;;;21.52;12.35;;;;;;;-3.16;69.91;102352.72;3608693;39;20070;-61
2022/12/18 08:39:42;;;;;;;24.33;12.85;;;;;;;-3.12;69.94;102344.03;3607721;39;20047;-65
2022/12/18 08:44:52;;;;;;;26.02;12.88;;;;;;;-3.07;69.46;102335.38;3607991;39;20502;-63
2022/12/18 08:47:17;;;;;;;27.42;12.13;;;;;;;-2.99;69.21;102327.59;3610111;39;20054;-63
2022/12/18 08:49:43;;;;;;;26.88;13.85;;;;;;;-2.96;69.29;102321.53;3609440;39;20046;-62
2022/12/18 08:52:09;;;;;;;27.90;14.35;;;;;;;-3.10;68.90;102290.59;3609025;39;20172;-63
2022/12/18 08:54:34;;;;;;;25.88;14.98;;;;;;;-3.19;69.25;102274.66;3611461;39;20057;-62
2022/12/18 08:57:00;;;;;;;23.05;13.38;;;;;;;-2.86;68.84;102333.97;3601737;39;20043;-62
2022/12/18 08:59:28;;;;;;;21.73;12.48;;;;;;;-2.85;68.94;102325.25;3610831;39;20054;-62
2022/12/18 09:01:55;;;;;;;23.55;12.77;;;;;;;-2.80;68.39;102318.28;3608540;39;20062;-62
2022/12/18 09:04:22;;;;;;;22.70;13.23;;;;;;;-3.03;69.13;102258.28;3606995;39;20058;-62
2022/12/18 09:06:48;;;;;;;23.98;13.88;;;;;;;-2.68;68.90;102307.09;3610915;39;20292;-62
2022/12/18 09:09:13;;;;;;;23.58;13.10;;;;;;;-2.63;68.93;102321.22;3610181;39;20059;-62
2022/12/18 09:11:39;;;;;;;23.40;12.98;;;;;;;-2.56;68.16;102333.63;3607691;39;20050;-62
2022/12/18 09:14:05;;;;;;;25.73;13.52;;;;;;;-2.62;68.19;102318.59;3604862;39;20377;-62
2022/12/18 09:16:32;;;;;;;23.08;13.23;;;;;;;-2.47;68.28;102344.31;3613215;39;20039;-61
2022/12/18 09:18:59;;;;;;;21.42;12.45;;;;;;;-2.40;68.06;102340.91;3608598;39;20059;-62
2022/12/18 09:21:30;;;;;;;23.50;12.90;;;;;;;-2.34;67.65;102345.38;3609109;39;20046;-61
2022/12/18 09:23:56;;;;;;;23.83;13.45;;;;;;;-2.31;67.81;102350.72;3610775;39;20063;-61
2022/12/18 09:26:24;;;;;;;23.63;12.48;;;;;;;-2.24;67.61;102347.28;3605666;39;20059;-61
2022/12/18 09:28:51;;;;;;;22.38;13.07;;;;;;;-2.20;66.98;102343.84;3609352;39;20063;-61
2022/12/18 09:31:20;;;;;;;21.83;12.50;;;;;;;-2.19;67.55;102329.81;3612764;39;20257;-62
2022/12/18 09:33:46;;;;;;;23.17;12.75;;;;;;;-2.15;66.72;102323.72;3608761;39;20390;-62
2022/12/18 09:36:17;;;;;;;22.95;13.55;;;;;;;-2.10;67.08;102313.25;3613032;39;20088;-61
2022/12/18 09:38:43;;;;;;;21.98;13.05;;;;;;;-2.11;66.49;102316.75;3612165;39;20377;-61
2022/12/18 09:41:44;;;;;;;23.75;12.82;;;;;;;-2.04;67.29;102317.72;3609942;39;20044;-62
2022/12/18 09:44:28;;;;;;;24.77;14.70;;;;;;;-2.01;66.40;102318.66;3612519;39;20047;-62
2022/12/18 09:47:17;;;;;;;22.30;13.18;;;;;;;-1.98;66.10;102317.81;3614590;39;20150;-62
2022/12/18 09:49:48;;;;;;;35.45;18.10;;;;;;;-1.95;66.25;102312.59;3610038;39;20063;-62
2022/12/18 09:52:37;;;;;;;30.67;15.82;;;;;;;-1.89;67.21;102292.47;3617978;39;20054;-62
2022/12/18 09:55:17;;;;;;;26.77;14.48;;;;;;;-1.94;66.79;102273.06;3618381;39;20043;-62
2022/12/18 09:57:53;;;;;;;26.65;14.93;;;;;;;-1.79;67.04;102290.84;3615809;39;20054;-61
2022/12/18 10:00:23;;;;;;;24.85;13.75;;;;;;;-1.75;66.85;102297.91;3611006;39;20067;-62
2022/12/18 10:02:56;;;;;;;23.77;14.10;;;;;;;-1.66;66.69;102305.03;3612508;39;20059;-62
2022/12/18 10:05:42;;;;;;;26.48;15.45;;;;;;;-1.54;66.14;102297.28;3611811;39;20069;-62
2022/12/18 10:08:24;;;;;;;26.02;15.13;;;;;;;-1.47;66.33;102300.88;3608198;39;20039;-62
2022/12/18 10:11:03;;;;;;;27.15;14.93;;;;;;;-1.43;66.07;102302.69;3604311;39;20083;-62
2022/12/18 10:13:52;;;;;;;28.10;15.38;;;;;;;-1.35;65.00;102306.28;3608910;39;20047;-62
2022/12/18 10:16:27;;;;;;;22.95;13.88;;;;;;;-1.30;65.31;102304.59;3610135;39;20069;-62
2022/12/18 10:19:16;;;;;;;23.58;13.30;;;;;;;-1.28;64.74;102300.22;3611597;39;20272;-62
2022/12/18 10:22:32;;;;;;;27.50;14.85;;;;;;;-1.23;65.76;102303.78;3608676;39;20101;-62
2022/12/18 10:25:22;;;;;;;22.50;13.38;;;;;;;-1.17;65.17;102298.59;3609681;39;20382;-62
2022/12/18 10:27:52;;;;;;;25.33;14.35;;;;;;;-1.85;65.57;102171.28;3608498;39;20309;-62
2022/12/18 10:30:22;;;;;;;23.00;14.10;;;;;;;-1.15;65.94;102255.50;3606105;39;20111;-63
2022/12/18 10:32:49;;;;;;;27.23;14.82;;;;;;;-1.21;65.39;102225.53;3604379;39;20295;-62
2022/12/18 10:35:24;;;;;;;24.50;14.70;;;;;;;-0.85;66.19;102266.34;3607441;39;20588;-63
2022/12/18 10:38:16;;;;;;;26.95;14.23;;;;;;;-0.80;65.14;102253.16;3611329;39;20066;-62
2022/12/18 10:41:02;;;;;;;21.92;12.82;;;;;;;-0.77;64.46;102254.06;3610984;39;20123;-63
2022/12/18 10:43:37;;;;;;;24.23;14.75;;;;;;;-0.72;65.19;102247.06;3612141;39;20341;-63
2022/12/18 10:46:15;;;;;;;24.27;14.10;;;;;;;-0.89;64.43;102202.94;3605309;39;20047;-62
2022/12/18 10:48:51;;;;;;;23.08;13.45;;;;;;;-0.62;64.69;102241.88;3610767;39;20677;-61
2022/12/18 10:51:29;;;;;;;22.65;13.23;;;;;;;-0.63;64.38;102229.53;3612936;39;20976;-62
2022/12/18 10:54:02;;;;;;;21.75;13.30;;;;;;;-0.54;64.96;102240.13;3608930;39;20448;-62
2022/12/18 10:56:31;;;;;;;22.02;12.38;;;;;;;-0.49;64.26;102238.41;3611251;39;20054;-62
2022/12/18 10:59:04;;;;;;;23.17;13.75;;;;;;;-0.51;63.74;102230.50;3605757;39;20385;-62
2022/12/18 11:01:57;;;;;;;22.65;13.18;;;;;;;-0.49;63.92;102219.94;3610877;39;20067;-62
2022/12/18 11:04:29;;;;;;;22.10;13.07;;;;;;;-0.48;63.94;102213.78;3596886;39;20609;-62
2022/12/18 11:07:06;;;;;;;22.90;13.13;;;;;;;-0.48;64.18;102219.06;3606722;39;20401;-62
2022/12/18 11:09:37;;;;;;;20.17;12.68;;;;;;;-0.47;64.16;102215.56;3604875;39;20057;-62
2022/12/18 11:12:22;;;;;;;22.38;13.07;;;;;;;-0.48;63.88;102205.84;3609383;39;20103;-62
2022/12/18 11:14:52;;;;;;;23.95;13.38;;;;;;;-0.37;64.35;102225.28;3610439;39;20055;-63
2022/12/18 11:17:34;;;;;;;22.30;12.63;;;;;;;-0.34;64.00;102227.06;3615005;39;20322;-63
2022/12/18 11:20:19;;;;;;;22.75;12.65;;;;;;;-1.02;64.73;102094.63;3613187;39;20048;-62
2022/12/18 11:22:58;;;;;;;21.75;12.50;;;;;;;-0.27;64.07;102213.03;3607956;39;20062;-62
2022/12/18 11:25:24;;;;;;;20.85;12.43;;;;;;;-0.20;64.32;102208.66;3609475;39;20125;-62
2022/12/18 11:28:04;;;;;;;21.92;12.95;;;;;;;-0.16;63.67;102197.19;3610860;39;20059;-65
2022/12/18 11:30:36;;;;;;;24.10;12.88;;;;;;;-0.49;63.98;102138.06;3610002;39;20065;-62
2022/12/18 11:33:15;;;;;;;21.38;12.95;;;;;;;-0.14;64.36;102187.53;3610839;39;20050;-62